メインページ
METAR-TAF:

METAR-TAF

空港 :

トロント, オンタリオ州, カナダ

トロント・ピアソン国際空港

緯度: 43-40N, 経度: 079-38W, 海抜: 173m

現時点の気象観測

当レポートは20分前の13:00(UTC)に作成
北/北東の風 2kt
気温 25°C
湿度 69%
気圧 1019 hPa
視程: 24.1km
高度25000ftの千切れ雲あり

METAR: CYYZ 251300Z 03002KT 15SM BKN250 25/19 A3010 RMK CS5 CONTRAILS SLP190 DENSITY ALT 1700FT

時間: 09:20 (13:20 UTC)

予報

当レポートは1時間42分前の11:38(UTC)に作成
予報は25日の 12時(UTC)から 26日の 18時(UTC)まで有効
変向風 3kt
視程: 10km
晴天
25日の 1700時(UTC)から
南/南東の風 8kt
視程: 10km
高度24000ftの雲は散在している
26日の 00時(UTC)から 26日の 02時(UTC)まで徐々に
変向風 3kt
26日の 14時(UTC)から 26日の 16時(UTC)まで徐々に
の風 7kt

TAF: CYYZ 251138Z 2512/2618 VRB03KT P6SM SKC FM251700 15008KT P6SM SCT240 BECMG 2600/2602 VRB03KT BECMG 2614/2616 17007KT RMK NXT FCST BY 251500Z

4,000以上の空港の気象観測と天気予報(METAR報とTAF報)

利用可能な観測所は地図上に黄色い丸と赤い丸で示す。

丸の上にカーソルを重ねると観測所名を参照できる。

次にクリックすると気象観測と天気予報を参照できる。

マップの切り替え:黒色「×」印の緑ボタンをクリックして拡大、「-」印の緑ボタンをクリックして縮小、緑色の三角印をクリックして隣りの地図に切り替え


METAR-TAF: